Station Historical Data
Daily Summary for June 10, 2017 Units:  English    Metric   Both
« Previous Day
Next Day »
Daily Weekly Monthly Yearly Custom
  High: Low: Average:
Temperature: 86.0 °F 62.4 °F 73.9 °F
Dew Point: 64.9 °F 57.0 °F 61 °F
Humidity: 91% 39% 67%
Wind Speed: 1.0mph 0.0mph 0mph
Wind Gust: 2.0mph - -
Wind- - WNW
Pressure: 30.14 in 30.00 in -
Precipitation: 0.00 in    
Historical Graphs
 
 
Tabular Data for June 10, 2017
Time Temperature Dew Point Pressure Wind Wind Speed Wind Gust Humidity Rainfall Rate (Hourly) solar Conditions
00:01 66.3 °F 60.0 °F 30.01 in Calm     80% 0.00 in WeatherDisplay:10.37 W/m2 SCT
00:10 66.1 °F 60.1 °F 30.01 in Calm     81% 0.00 in WeatherDisplay:10.37 W/m2 SCT
00:20 65.9 °F 60.2 °F 30.01 in Calm     82% 0.00 in WeatherDisplay:10.37 W/m2 SCT
00:31 65.8 °F 60.5 °F 30.02 in Calm     83% 0.00 in WeatherDisplay:10.37 W/m2 SCT
00:40 65.6 °F 60.3 °F 30.02 in Calm     83% 0.00 in WeatherDisplay:10.37 W/m2 SCT
00:50 65.5 °F 60.2 °F 30.02 in Calm     83% 0.00 in WeatherDisplay:10.37 W/m2 SCT
01:00 65.5 °F 60.5 °F 30.02 in Calm     84% 0.00 in WeatherDisplay:10.37 W/m2 SCT
01:10 65.3 °F 60.3 °F 30.02 in Calm     84% 0.00 in WeatherDisplay:10.37 W/m2 SCT
01:20 65.2 °F 60.6 °F 30.01 in Calm     85% 0.00 in WeatherDisplay:10.37 W/m2 SCT
01:30 65.1 °F 60.1 °F 30.01 in Calm     84% 0.00 in WeatherDisplay:10.37 W/m2 SCT
01:41 65.0 °F 60.4 °F 30.01 in Calm     85% 0.00 in WeatherDisplay:10.37 W/m2 SCT
01:50 64.9 °F 60.3 °F 30.01 in Calm     85% 0.00 in WeatherDisplay:10.37 W/m2 SCT
02:10 64.7 °F 60.4 °F 30.01 in Calm     86% 0.00 in WeatherDisplay:10.37 W/m2 SCT
02:20 64.5 °F 60.2 °F 30.01 in Calm     86% 0.00 in WeatherDisplay:10.37 W/m2 SCT
02:30 64.4 °F 60.1 °F 30.01 in Calm     86% 0.00 in WeatherDisplay:10.37 W/m2 SCT
02:40 64.1 °F 59.9 °F 30.01 in Calm     86% 0.00 in WeatherDisplay:10.37 W/m2 SCT
02:50 64.0 °F 59.7 °F 30.01 in Calm     86% 0.00 in WeatherDisplay:10.37 W/m2 SCT
03:00 63.8 °F 59.5 °F 30.01 in Calm     86% 0.00 in WeatherDisplay:10.37 W/m2 SCT
03:10 64.0 °F 60.0 °F 30.01 in Calm     87% 0.00 in WeatherDisplay:10.37 W/m2 SCT
03:20 64.0 °F 59.7 °F 30.01 in Calm     86% 0.00 in WeatherDisplay:10.37 W/m2 SCT
03:30 63.8 °F 59.9 °F 30.00 in Calm     87% 0.00 in WeatherDisplay:10.37 W/m2 SCT
03:40 63.7 °F 59.7 °F 30.01 in Calm     87% 0.00 in WeatherDisplay:10.37 W/m2 SCT
03:50 63.5 °F 59.6 °F 30.01 in Calm     87% 0.00 in WeatherDisplay:10.37 W/m2 SCT
04:01 62.4 °F 58.5 °F 30.00 in Calm     87% 0.00 in WeatherDisplay:10.37 W/m2 SCT
04:10 62.4 °F 58.5 °F 30.01 in Calm     87% 0.00 in WeatherDisplay:10.37 W/m2 SCT
04:20 62.4 °F 58.5 °F 30.01 in Calm     87% 0.00 in WeatherDisplay:10.37 W/m2 SCT
04:30 64.0 °F 60.0 °F 30.01 in Calm     87% 0.00 in WeatherDisplay:10.37 W/m2 SCT
04:40 62.4 °F 58.5 °F 30.01 in Calm     87% 0.00 in WeatherDisplay:10.37 W/m2 CLR
04:50 62.4 °F 58.5 °F 30.01 in Calm     87% 0.00 in WeatherDisplay:10.37 W/m2 CLR
05:01 62.4 °F 58.5 °F 30.02 in Calm     87% 0.00 in WeatherDisplay:10.37 W/m2 CLR
05:10 62.4 °F 58.5 °F 30.02 in Calm     87% 0.00 in WeatherDisplay:10.37 W/m2 CLR
05:20 62.4 °F 58.5 °F 30.02 in Calm     87% 0.00 in WeatherDisplay:10.37 W/m2 CLR
05:30 62.4 °F 58.5 °F 30.02 in Calm     87% 0.00 in WeatherDisplay:10.37 W/m2 CLR
05:40 62.4 °F 58.5 °F 30.03 in Calm     87% 0.00 in WeatherDisplay:10.37 W/m2 CLR
05:50 62.4 °F 58.5 °F 30.03 in Calm     87% 0.00 in WeatherDisplay:10.37 W/m2 CLR
06:00 62.4 °F 58.5 °F 30.03 in Calm     87% 0.00 in WeatherDisplay:10.37 W/m2 CLR
06:10 62.4 °F 58.5 °F 30.04 in Calm     87% 0.00 in WeatherDisplay:10.37 W/m2 CLR
06:20 62.4 °F 58.5 °F 30.04 in Calm     87% 0.00 in WeatherDisplay:10.37 W/m2 CLR
06:40 62.4 °F 58.5 °F 30.06 in Calm     87% 0.00 in WeatherDisplay:10.37 W/m2 CLR
06:50 62.4 °F 58.5 °F 30.06 in Calm     87% 0.00 in WeatherDisplay:10.37 W/m2 CLR
07:00 62.4 °F 58.5 °F 30.07 in Calm     87% 0.00 in WeatherDisplay:10.37 W/m2 CLR
07:10 62.4 °F 58.5 °F 30.07 in Calm     87% 0.00 in WeatherDisplay:10.37 W/m2 CLR
07:20 62.4 °F 58.5 °F 30.07 in Calm     87% 0.00 in WeatherDisplay:10.37 W/m2 CLR
07:30 62.4 °F 58.5 °F 30.08 in Calm     87% 0.00 in WeatherDisplay:10.37 W/m2 CLR
07:40 62.4 °F 58.5 °F 30.08 in Calm     87% 0.00 in WeatherDisplay:10.37 W/m2 CLR
07:50 64.4 °F 61.7 °F 30.08 in Calm     91% 0.00 in WeatherDisplay:10.37 W/m2 CLR
08:00 65.5 °F 62.5 °F 30.08 in Calm     90% 0.00 in WeatherDisplay:10.37 W/m2 CLR
08:10 67.0 °F 63.3 °F 30.08 in Calm     88% 0.00 in WeatherDisplay:10.37 W/m2 CLR
08:20 68.3 °F 63.9 °F 30.09 in Calm     86% 0.00 in WeatherDisplay:10.37 W/m2 CLR
08:30 69.1 °F 64.4 °F 30.09 in Calm     85% 0.00 in WeatherDisplay:10.37 W/m2 CLR
08:40 69.5 °F 64.4 °F 30.09 in Calm     84% 0.00 in WeatherDisplay:10.37 W/m2 CLR
08:50 69.7 °F 64.3 °F 30.10 in Calm     83% 0.00 in WeatherDisplay:10.37 W/m2 CLR
09:00 70.0 °F 64.9 °F 30.10 in Calm     84% 0.00 in WeatherDisplay:10.37 W/m2 CLR
09:10 70.7 °F 64.3 °F 30.10 in Calm     80% 0.00 in WeatherDisplay:10.37 W/m2 CLR
09:20 71.8 °F 64.2 °F 30.10 in Calm     77% 0.00 in WeatherDisplay:10.37 W/m2 CLR
09:30 72.8 °F 64.4 °F 30.10 in Calm     75% 0.00 in WeatherDisplay:10.37 W/m2 CLR
09:40 73.7 °F 64.9 °F 30.10 in Calm     74% 0.00 in WeatherDisplay:10.37 W/m2 CLR
09:50 74.6 °F 64.2 °F 30.11 in Calm     70% 0.00 in WeatherDisplay:10.37 W/m2 CLR
10:00 75.4 °F 64.5 °F 30.11 in Calm   1.0 mph 69% 0.00 in WeatherDisplay:10.37 W/m2 CLR
10:10 76.9 °F 64.7 °F 30.11 in Calm   1.0 mph 66% 0.00 in WeatherDisplay:10.37 W/m2 CLR
10:20 78.6 °F 64.0 °F 30.11 in Calm   2.0 mph 61% 0.00 in WeatherDisplay:10.37 W/m2 CLR
10:30 79.9 °F 63.8 °F 30.11 in Calm   2.0 mph 58% 0.00 in WeatherDisplay:10.37 W/m2 CLR
10:40 80.4 °F 64.3 °F 30.11 in Calm   1.0 mph 58% 0.00 in WeatherDisplay:10.37 W/m2 CLR
10:50 80.9 °F 63.2 °F 30.11 in Calm   1.0 mph 55% 0.00 in WeatherDisplay:10.37 W/m2 CLR
11:00 81.1 °F 61.8 °F 30.11 in Calm   1.0 mph 52% 0.00 in WeatherDisplay:10.37 W/m2 CLR
11:10 81.5 °F 61.6 °F 30.11 in Calm   1.0 mph 51% 0.00 in WeatherDisplay:10.37 W/m2 CLR
11:20 81.9 °F 62.0 °F 30.11 in Calm   1.0 mph 51% 0.00 in WeatherDisplay:10.37 W/m2 CLR
11:30 81.9 °F 62.0 °F 30.11 in Calm   1.0 mph 51% 0.00 in WeatherDisplay:10.37 W/m2 CLR
11:40 81.7 °F 60.7 °F 30.11 in Calm   2.0 mph 49% 0.00 in WeatherDisplay:10.37 W/m2 CLR
11:50 81.9 °F 62.6 °F 30.11 in Calm   2.0 mph 52% 0.00 in WeatherDisplay:10.37 W/m2 CLR
12:00 82.1 °F 59.9 °F 30.11 in WNW 1.0 mph 2.0 mph 47% 0.00 in WeatherDisplay:10.37 W/m2 CLR
12:10 81.9 °F 60.9 °F 30.11 in Calm   1.0 mph 49% 0.00 in WeatherDisplay:10.37 W/m2 CLR
12:20 81.7 °F 60.1 °F 30.11 in Calm   1.0 mph 48% 0.00 in WeatherDisplay:10.37 W/m2 CLR
12:30 81.3 °F 61.5 °F 30.11 in Calm   1.0 mph 51% 0.00 in WeatherDisplay:10.37 W/m2 CLR
12:40 81.5 °F 63.3 °F 30.11 in Calm     54% 0.00 in WeatherDisplay:10.37 W/m2 CLR
12:50 83.5 °F 61.1 °F 30.11 in Calm   1.0 mph 47% 0.00 in WeatherDisplay:10.37 W/m2 CLR
13:00 83.9 °F 62.1 °F 30.11 in Calm     48% 0.00 in WeatherDisplay:10.37 W/m2 CLR
13:10 84.7 °F 57.0 °F 30.11 in WNW 1.0 mph 1.0 mph 39% 0.00 in WeatherDisplay:10.37 W/m2 CLR
13:20 85.7 °F 60.6 °F 30.11 in Calm   1.0 mph 43% 0.00 in WeatherDisplay:10.37 W/m2 CLR
13:30 86.0 °F 60.2 °F 30.11 in Calm     42% 0.00 in WeatherDisplay:10.37 W/m2 CLR
13:40 84.5 °F 61.5 °F 30.10 in Calm   1.0 mph 46% 0.00 in WeatherDisplay:10.37 W/m2 CLR
13:50 85.0 °F 58.7 °F 30.10 in Calm   1.0 mph 41% 0.00 in WeatherDisplay:10.37 W/m2 CLR
14:00 84.4 °F 59.4 °F 30.10 in Calm   1.0 mph 43% 0.00 in WeatherDisplay:10.37 W/m2 CLR
14:10 82.7 °F 61.6 °F 30.10 in Calm   2.0 mph 49% 0.00 in WeatherDisplay:10.37 W/m2 CLR
14:20 83.0 °F 60.7 °F 30.09 in Calm   2.0 mph 47% 0.00 in WeatherDisplay:10.37 W/m2 CLR
14:30 83.3 °F 60.9 °F 30.09 in West 1.0 mph 2.0 mph 47% 0.00 in WeatherDisplay:10.37 W/m2 CLR
14:40 83.6 °F 61.2 °F 30.09 in Calm   2.0 mph 47% 0.00 in WeatherDisplay:10.37 W/m2 CLR
14:50 83.7 °F 61.9 °F 30.09 in Calm   1.0 mph 48% 0.00 in WeatherDisplay:10.37 W/m2 CLR
15:00 82.8 °F 59.9 °F 30.09 in Calm     46% 0.00 in WeatherDisplay:10.37 W/m2 CLR
15:10 83.0 °F 57.5 °F 30.08 in Calm     42% 0.00 in WeatherDisplay:10.37 W/m2 CLR
15:20 82.9 °F 60.6 °F 30.08 in Calm   1.0 mph 47% 0.00 in WeatherDisplay:10.37 W/m2 CLR
15:30 83.5 °F 61.7 °F 30.08 in Calm   2.0 mph 48% 0.00 in WeatherDisplay:10.37 W/m2 CLR
15:40 84.3 °F 60.0 °F 30.08 in Calm   1.0 mph 44% 0.00 in WeatherDisplay:10.37 W/m2 CLR
15:50 84.1 °F 59.2 °F 30.07 in Calm   1.0 mph 43% 0.00 in WeatherDisplay:10.37 W/m2 CLR
16:00 84.2 °F 60.6 °F 30.07 in Calm   1.0 mph 45% 0.00 in WeatherDisplay:10.37 W/m2 CLR
16:10 84.6 °F 60.9 °F 30.08 in Calm   1.0 mph 45% 0.00 in WeatherDisplay:10.37 W/m2 CLR
16:20 84.6 °F 60.9 °F 30.07 in Calm   2.0 mph 45% 0.00 in WeatherDisplay:10.37 W/m2 CLR
16:30 85.0 °F 61.3 °F 30.07 in Calm   1.0 mph 45% 0.00 in WeatherDisplay:10.37 W/m2 CLR
16:40 85.0 °F 61.9 °F 30.07 in Calm   2.0 mph 46% 0.00 in WeatherDisplay:10.37 W/m2 CLR
16:50 84.9 °F 61.2 °F 30.07 in Calm     45% 0.00 in WeatherDisplay:10.37 W/m2 CLR
17:00 84.7 °F 60.4 °F 30.06 in Calm     44% 0.00 in WeatherDisplay:10.37 W/m2 CLR
17:10 85.3 °F 60.2 °F 30.06 in NNW 1.0 mph 2.0 mph 43% 0.00 in WeatherDisplay:10.37 W/m2 CLR
17:20 85.1 °F 61.4 °F 30.06 in Calm   1.0 mph 45% 0.00 in WeatherDisplay:10.37 W/m2 CLR
17:30 83.5 °F 61.2 °F 30.06 in Calm   1.0 mph 47% 0.00 in WeatherDisplay:10.37 W/m2 CLR
17:40 82.5 °F 60.8 °F 30.06 in Calm   1.0 mph 48% 0.00 in WeatherDisplay:10.37 W/m2 CLR
17:50 82.0 °F 61.5 °F 30.06 in Calm   1.0 mph 50% 0.00 in WeatherDisplay:10.37 W/m2 CLR
18:00 81.6 °F 61.2 °F 30.06 in Calm   1.0 mph 50% 0.00 in WeatherDisplay:10.37 W/m2 CLR
18:10 81.4 °F 62.1 °F 30.06 in Calm     52% 0.00 in WeatherDisplay:10.37 W/m2 CLR
18:20 81.8 °F 61.3 °F 30.05 in Calm   1.0 mph 50% 0.00 in WeatherDisplay:10.37 W/m2 CLR
18:30 81.9 °F 62.0 °F 30.06 in Calm     51% 0.00 in WeatherDisplay:10.37 W/m2 CLR
18:40 81.6 °F 62.3 °F 30.05 in Calm     52% 0.00 in WeatherDisplay:10.37 W/m2 CLR
18:50 81.6 °F 61.2 °F 30.06 in Calm   1.0 mph 50% 0.00 in WeatherDisplay:10.37 W/m2 CLR
19:00 81.3 °F 60.9 °F 30.06 in Calm   1.0 mph 50% 0.00 in WeatherDisplay:10.37 W/m2 CLR
19:10 80.9 °F 61.6 °F 30.06 in Calm     52% 0.00 in WeatherDisplay:10.37 W/m2 CLR
19:20 80.4 °F 62.2 °F 30.06 in Calm     54% 0.00 in WeatherDisplay:10.37 W/m2 CLR
19:30 79.8 °F 62.7 °F 30.06 in Calm     56% 0.00 in WeatherDisplay:10.37 W/m2 CLR
19:40 79.2 °F 62.1 °F 30.06 in Calm     56% 0.00 in WeatherDisplay:10.37 W/m2 CLR
19:50 78.5 °F 62.0 °F 30.06 in Calm     57% 0.00 in WeatherDisplay:10.37 W/m2 CLR
20:00 77.9 °F 62.9 °F 30.06 in Calm     60% 0.00 in WeatherDisplay:10.37 W/m2 CLR
20:10 77.3 °F 61.9 °F 30.07 in Calm     59% 0.00 in WeatherDisplay:10.37 W/m2 CLR
20:20 76.9 °F 61.9 °F 30.07 in Calm     60% 0.00 in WeatherDisplay:10.37 W/m2 CLR
20:30 76.5 °F 61.6 °F 30.07 in Calm     60% 0.00 in WeatherDisplay:10.37 W/m2 CLR
20:40 76.2 °F 61.8 °F 30.08 in Calm     61% 0.00 in WeatherDisplay:10.37 W/m2 CLR
20:50 75.9 °F 61.5 °F 30.08 in Calm     61% 0.00 in WeatherDisplay:10.37 W/m2 CLR
21:00 75.5 °F 61.1 °F 30.09 in Calm     61% 0.00 in WeatherDisplay:10.37 W/m2 CLR
21:10 75.1 °F 61.7 °F 30.09 in Calm     63% 0.00 in WeatherDisplay:10.37 W/m2 CLR
21:20 74.8 °F 61.4 °F 30.09 in Calm     63% 0.00 in WeatherDisplay:10.37 W/m2 CLR
21:30 74.5 °F 61.1 °F 30.09 in Calm     63% 0.00 in WeatherDisplay:10.37 W/m2 CLR
21:40 74.3 °F 60.9 °F 30.10 in Calm     63% 0.00 in WeatherDisplay:10.37 W/m2 CLR
21:50 74.0 °F 61.1 °F 30.10 in Calm     64% 0.00 in WeatherDisplay:10.37 W/m2 CLR
22:00 73.9 °F 61.4 °F 30.11 in Calm     65% 0.00 in WeatherDisplay:10.37 W/m2 CLR
22:10 73.6 °F 62.0 °F 30.11 in Calm     67% 0.00 in WeatherDisplay:10.37 W/m2 CLR
22:20 73.2 °F 61.2 °F 30.11 in Calm     66% 0.00 in WeatherDisplay:10.37 W/m2 CLR
22:30 72.9 °F 60.8 °F 30.12 in Calm     66% 0.00 in WeatherDisplay:10.37 W/m2 CLR
22:40 72.5 °F 61.3 °F 30.13 in Calm     68% 0.00 in WeatherDisplay:10.37 W/m2 CLR
22:50 72.2 °F 61.8 °F 30.13 in Calm     70% 0.00 in WeatherDisplay:10.37 W/m2 CLR
23:00 71.7 °F 61.8 °F 30.13 in Calm     71% 0.00 in WeatherDisplay:10.37 W/m2 CLR
23:10 71.2 °F 61.7 °F 30.14 in Calm     72% 0.00 in WeatherDisplay:10.37 W/m2 CLR
23:20 70.8 °F 62.1 °F 30.14 in Calm     74% 0.00 in WeatherDisplay:10.37 W/m2 CLR
23:30 70.5 °F 61.8 °F 30.14 in Calm     74% 0.00 in WeatherDisplay:10.37 W/m2 CLR
23:40 70.3 °F 61.6 °F 30.14 in Calm     74% 0.00 in WeatherDisplay:10.37 W/m2 CLR
23:50 70.0 °F 61.7 °F 30.14 in Calm     75% 0.00 in WeatherDisplay:10.37 W/m2 CLR
Piedmont Bend
Compliments of Weather Underground - 4 mb